Time;durP1;ratioP1;P1;durP2;ratioP2;P2;SDS_P1;SDS_P2;PMS_P1;PMS_P2;Temp;Humidity;BMP_temperature;BMP_pressure;BME280_temperature;BME280_humidity;BME280_pressure;Samples;Min_cycle;Max_cycle;Signal;HPM_P1;HPM_P2
2024/04/07 00:02:02;;;;;;;;;;;;;;;18.48;46.79;100521.53;4936325;27;98377;-70
2024/04/07 00:04:28;;;;;;;;;;;;;;;18.46;46.66;100523.75;4956949;27;98062;-73
2024/04/07 00:06:55;;;;;;;;;;;;;;;18.45;46.69;100518.63;4924627;27;98390;-70
2024/04/07 00:09:21;;;;;;;;;;;;;;;18.42;46.78;100517.34;4944670;27;98102;-72
2024/04/07 00:11:48;;;;;;;;;;;;;;;18.40;46.54;100512.22;4933290;27;98315;-71
2024/04/07 00:14:15;;;;;;;;;;;;;;;18.39;46.74;100512.50;4937256;27;98828;-70
2024/04/07 00:16:41;;;;;;;;;;;;;;;18.42;46.86;100511.09;4944037;27;98131;-70
2024/04/07 00:19:09;;;;;;;;;;;;;;;18.47;46.87;100511.75;4934255;28;99741;-71
2024/04/07 00:21:35;;;;;;;;;;;;;;;18.52;46.75;100510.78;4916859;28;98471;-70
2024/04/07 00:24:01;;;;;;;;;;;;;;;18.55;46.59;100508.22;4917378;28;99509;-70
2024/04/07 00:26:28;;;;;;;;;;;;;;;18.59;46.84;100511.13;4918223;28;98709;-69
2024/04/07 00:28:54;;;;;;;;;;;;;;;18.60;46.62;100510.78;4919657;28;98561;-70
2024/04/07 00:31:21;;;;;;;;;;;;;;;18.62;46.70;100515.91;4916327;28;98019;-72
2024/04/07 00:33:47;;;;;;;;;;;;;;;18.61;46.56;100520.56;4896517;28;102603;-70
2024/04/07 00:36:14;;;;;;;;;;;;;;;18.61;46.72;100520.56;4912328;28;98280;-69
2024/04/07 00:38:41;;;;;;;;;;;;;;;18.62;46.78;100521.38;4914506;28;98255;-70
2024/04/07 00:41:08;;;;;;;;;;;;;;;18.61;46.91;100522.50;4894711;28;98073;-72
2024/04/07 00:43:37;;;;;;;;;;;;;;;18.60;46.64;100527.16;4905235;28;98352;-70
2024/04/07 00:46:03;;;;;;;;;;;;;;;18.58;46.64;100515.75;4918109;28;98579;-72
2024/04/07 00:48:30;;;;;;;;;;;;;;;18.58;46.90;100517.69;4929110;28;98040;-72
2024/04/07 00:50:56;;;;;;;;;;;;;;;18.56;46.69;100517.22;4932542;28;98271;-69
2024/04/07 00:53:23;;;;;;;;;;;;;;;18.54;46.89;100513.97;4911586;28;98347;-72
2024/04/07 00:55:50;;;;;;;;;;;;;;;18.51;46.85;100507.25;4898858;28;99974;-69
2024/04/07 00:58:17;;;;;;;;;;;;;;;18.50;46.88;100508.34;4932289;28;98518;-70
2024/04/07 01:00:44;;;;;;;;;;;;;;;18.47;46.78;100506.28;4913632;28;97938;-69
2024/04/07 01:03:11;;;;;;;;;;;;;;;18.46;46.88;100507.41;4915242;28;98326;-70
2024/04/07 01:05:44;;;;;;;;;;;;;;;18.43;46.82;100505.31;4901986;28;98627;-70
2024/04/07 01:08:11;;;;;;;;;;;;;;;18.40;46.71;100505.94;4911565;28;102356;-70
2024/04/07 01:10:38;;;;;;;;;;;;;;;18.38;46.86;100511.72;4943830;28;98518;-70
2024/04/07 01:13:06;;;;;;;;;;;;;;;18.35;46.84;100506.91;4912427;28;98395;-70
2024/04/07 01:15:32;;;;;;;;;;;;;;;18.34;46.82;100507.22;4918261;28;99814;-69
2024/04/07 01:17:59;;;;;;;;;;;;;;;18.31;46.90;100516.03;4916089;28;98306;-70
2024/04/07 01:20:26;;;;;;;;;;;;;;;18.27;46.71;100512.31;4926436;28;98259;-73
2024/04/07 01:22:53;;;;;;;;;;;;;;;18.26;46.81;100511.53;4932464;28;98225;-70
2024/04/07 01:25:22;;;;;;;;;;;;;;;18.24;46.93;100507.53;4916097;28;98190;-70
2024/04/07 01:28:01;;;;;;;;;;;;;;;18.20;47.05;100507.38;4917413;28;98441;-73
2024/04/07 01:30:28;;;;;;;;;;;;;;;18.17;47.02;100497.06;4936123;28;98183;-72
2024/04/07 01:32:54;;;;;;;;;;;;;;;18.14;46.81;100495.78;4936271;28;98331;-73
2024/04/07 01:35:21;;;;;;;;;;;;;;;18.12;47.03;100492.56;4928501;28;97997;-70
2024/04/07 01:37:48;;;;;;;;;;;;;;;18.10;46.76;100496.72;4913917;28;98745;-73
2024/04/07 01:40:15;;;;;;;;;;;;;;;18.08;47.05;100486.16;4918409;28;99614;-73
2024/04/07 01:42:42;;;;;;;;;;;;;;;18.06;47.08;100484.84;4936037;28;99558;-70
2024/04/07 01:45:09;;;;;;;;;;;;;;;18.03;46.96;100483.56;4948793;28;98892;-70
2024/04/07 01:47:36;;;;;;;;;;;;;;;18.01;46.91;100487.72;4937558;28;98006;-73
2024/04/07 01:50:03;;;;;;;;;;;;;;;17.98;47.11;100483.69;4966267;27;98278;-73
2024/04/07 01:52:29;;;;;;;;;;;;;;;17.96;46.90;100480.50;4947773;28;98934;-73
2024/04/07 01:54:56;;;;;;;;;;;;;;;17.94;47.07;100473.75;4921891;28;98466;-70
2024/04/07 01:57:22;;;;;;;;;;;;;;;17.90;46.88;100479.81;4934078;28;98187;-73
2024/04/07 01:59:49;;;;;;;;;;;;;;;17.90;46.83;100477.09;4937238;28;98224;-70
2024/04/07 02:02:19;;;;;;;;;;;;;;;17.86;46.90;100467.94;4931110;28;98453;-70
2024/04/07 02:04:48;;;;;;;;;;;;;;;17.86;47.09;100472.59;4937708;28;98330;-73
2024/04/07 02:07:17;;;;;;;;;;;;;;;17.84;46.91;100463.91;4929854;28;98149;-73
2024/04/07 02:09:46;;;;;;;;;;;;;;;17.81;46.82;100467.31;4920722;28;98140;-73
2024/04/07 02:12:12;;;;;;;;;;;;;;;17.79;47.12;100464.88;4932896;28;98432;-70
2024/04/07 02:14:39;;;;;;;;;;;;;;;17.77;46.91;100460.88;4932961;28;97953;-70
2024/04/07 02:17:05;;;;;;;;;;;;;;;17.75;47.08;100453.00;4920835;28;98515;-73
2024/04/07 02:19:32;;;;;;;;;;;;;;;17.74;47.07;100447.84;4938788;27;98025;-73
2024/04/07 02:21:58;;;;;;;;;;;;;;;17.71;46.89;100452.00;4937833;28;98319;-74
2024/04/07 02:24:25;;;;;;;;;;;;;;;17.70;46.90;100447.66;4947845;28;103041;-72
2024/04/07 02:26:51;;;;;;;;;;;;;;;17.66;46.91;100444.75;4921321;28;99018;-70
2024/04/07 02:29:17;;;;;;;;;;;;;;;17.65;46.99;100442.34;4943565;27;99549;-70
2024/04/07 02:31:44;;;;;;;;;;;;;;;17.63;46.93;100445.38;4932342;27;98044;-73
2024/04/07 02:34:12;;;;;;;;;;;;;;;17.62;47.13;100448.44;4934664;28;98417;-70
2024/04/07 02:36:38;;;;;;;;;;;;;;;17.60;47.07;100447.94;4918656;28;98257;-73
2024/04/07 02:39:09;;;;;;;;;;;;;;;17.60;46.90;100445.22;4934982;28;98988;-73
2024/04/07 02:41:36;;;;;;;;;;;;;;;17.58;46.96;100444.72;4941229;28;98469;-73
2024/04/07 02:44:03;;;;;;;;;;;;;;;17.55;47.20;100448.88;4922569;28;98909;-73
2024/04/07 02:49:15;;;;;;;;;;;;;;;17.54;47.01;100457.38;4944090;27;99184;-70
2024/04/07 02:51:41;;;;;;;;;;;;;;;17.51;47.18;100449.81;4941710;27;98521;-73
2024/04/07 02:54:10;;;;;;;;;;;;;;;17.49;47.13;100446.59;4935592;27;98433;-70
2024/04/07 02:56:36;;;;;;;;;;;;;;;17.48;46.93;100442.28;4922018;27;98176;-73
2024/04/07 02:59:03;;;;;;;;;;;;;;;17.47;47.08;100441.47;4937886;28;98382;-73
2024/04/07 03:01:29;;;;;;;;;;;;;;;17.45;46.92;100435.56;4954150;28;98079;-73
2024/04/07 03:03:56;;;;;;;;;;;;;;;17.45;47.03;100442.91;4923648;28;98104;-73
2024/04/07 03:06:22;;;;;;;;;;;;;;;17.42;46.91;100444.34;4919052;28;98219;-70
2024/04/07 03:08:51;;;;;;;;;;;;;;;17.40;47.12;100444.63;4939928;28;98319;-72
2024/04/07 03:11:17;;;;;;;;;;;;;;;17.39;47.12;100448.50;4942589;28;98569;-70
2024/04/07 03:13:43;;;;;;;;;;;;;;;17.38;47.04;100446.88;4934995;27;98108;-70
2024/04/07 03:16:10;;;;;;;;;;;;;;;17.37;46.95;100444.47;4939345;28;98336;-73
2024/04/07 03:18:37;;;;;;;;;;;;;;;17.35;47.11;100444.78;4934803;28;101111;-73
2024/04/07 03:21:03;;;;;;;;;;;;;;;17.33;47.07;100438.88;4946069;27;98602;-73
2024/04/07 03:23:31;;;;;;;;;;;;;;;17.33;46.92;100441.59;4958025;27;107900;-69
2024/04/07 03:25:57;;;;;;;;;;;;;;;17.31;46.98;100449.25;4957918;27;99214;-73
2024/04/07 03:28:24;;;;;;;;;;;;;;;17.29;47.01;100437.88;4946334;28;98245;-73
2024/04/07 03:30:52;;;;;;;;;;;;;;;17.28;47.16;100438.16;4927203;27;98426;-70
2024/04/07 03:33:18;;;;;;;;;;;;;;;17.26;47.21;100433.06;4936499;27;98246;-69
2024/04/07 03:35:45;;;;;;;;;;;;;;;17.23;46.98;100439.13;4935895;27;98187;-70
2024/04/07 03:38:11;;;;;;;;;;;;;;;17.23;46.96;100441.84;4936323;27;98449;-73
2024/04/07 03:40:38;;;;;;;;;;;;;;;17.21;47.03;100435.09;4941836;27;98361;-73
2024/04/07 03:43:05;;;;;;;;;;;;;;;17.20;47.14;100433.50;4958805;27;99156;-73
2024/04/07 03:45:32;;;;;;;;;;;;;;;17.18;47.05;100439.25;4973002;27;98213;-70
2024/04/07 03:47:58;;;;;;;;;;;;;;;17.17;47.00;100437.63;4936463;27;98356;-73
2024/04/07 03:50:25;;;;;;;;;;;;;;;17.15;47.00;100432.50;4938894;27;98517;-73
2024/04/07 03:52:52;;;;;;;;;;;;;;;17.13;47.04;100432.03;4925296;27;98592;-70
2024/04/07 03:55:18;;;;;;;;;;;;;;;17.12;47.16;100437.75;4937564;27;98111;-73
2024/04/07 03:57:44;;;;;;;;;;;;;;;17.10;47.06;100432.66;4943967;27;98390;-73
2024/04/07 04:00:11;;;;;;;;;;;;;;;17.07;47.12;100435.97;4936952;27;98239;-70
2024/04/07 04:02:37;;;;;;;;;;;;;;;17.07;47.20;100429.75;4951511;28;98210;-73
2024/04/07 04:05:04;;;;;;;;;;;;;;;17.06;47.06;100434.38;4935749;27;98075;-73
2024/04/07 04:07:30;;;;;;;;;;;;;;;17.05;47.09;100434.69;4941666;28;98244;-73
2024/04/07 04:10:00;;;;;;;;;;;;;;;17.03;47.22;100434.19;4927316;27;99859;-73
2024/04/07 04:12:28;;;;;;;;;;;;;;;17.02;47.18;100435.31;4943508;27;98421;-73
2024/04/07 04:14:55;;;;;;;;;;;;;;;17.00;47.06;100429.38;4939598;27;98500;-73
2024/04/07 04:17:21;;;;;;;;;;;;;;;16.99;46.98;100430.50;4958129;27;99878;-70
2024/04/07 04:19:47;;;;;;;;;;;;;;;16.97;47.15;100428.06;4933532;28;99867;-70
2024/04/07 04:22:13;;;;;;;;;;;;;;;16.95;47.16;100427.59;4957236;27;99440;-73
2024/04/07 04:24:39;;;;;;;;;;;;;;;16.95;47.28;100432.22;4920155;28;99071;-70
2024/04/07 04:27:07;;;;;;;;;;;;;;;16.93;47.18;100433.31;4934861;27;98206;-69
2024/04/07 04:29:34;;;;;;;;;;;;;;;16.93;47.24;100451.56;4950352;28;99458;-73
2024/04/07 04:32:01;;;;;;;;;;;;;;;16.91;47.24;100443.72;4942317;27;98735;-73
2024/04/07 04:34:28;;;;;;;;;;;;;;;16.90;47.11;100444.84;4951990;27;98466;-73
2024/04/07 04:36:55;;;;;;;;;;;;;;;16.90;47.22;100449.50;4922382;27;98851;-69
2024/04/07 04:39:24;;;;;;;;;;;;;;;16.90;46.99;100452.22;4925641;27;98153;-73
2024/04/07 04:41:51;;;;;;;;;;;;;;;16.89;47.12;100451.38;4925057;28;98728;-70
2024/04/07 04:44:17;;;;;;;;;;;;;;;16.90;47.19;100458.47;4939418;27;99324;-73
2024/04/07 04:46:44;;;;;;;;;;;;;;;16.90;47.16;100449.50;4924252;27;98225;-70
2024/04/07 04:49:11;;;;;;;;;;;;;;;16.90;47.20;100453.03;4935706;27;98349;-69
2024/04/07 04:51:37;;;;;;;;;;;;;;;16.92;47.05;100455.41;4915485;28;97970;-72
2024/04/07 04:54:03;;;;;;;;;;;;;;;16.94;46.95;100453.22;4937068;28;99640;-70
2024/04/07 04:56:30;;;;;;;;;;;;;;;16.96;47.10;100450.16;4936380;28;98864;-73
2024/04/07 04:58:59;;;;;;;;;;;;;;;16.99;46.96;100463.16;4931213;27;97998;-74
2024/04/07 05:01:26;;;;;;;;;;;;;;;17.01;47.00;100460.91;4926333;28;98039;-70
2024/04/07 05:03:53;;;;;;;;;;;;;;;17.02;47.06;100468.00;4954911;27;98117;-70
2024/04/07 05:06:20;;;;;;;;;;;;;;;17.04;47.15;100452.94;4925284;27;98161;-73
2024/04/07 05:08:46;;;;;;;;;;;;;;;17.06;46.89;100458.88;4955557;27;98173;-73
2024/04/07 05:11:13;;;;;;;;;;;;;;;17.08;46.85;100459.38;4939496;27;98178;-73
2024/04/07 05:13:40;;;;;;;;;;;;;;;17.11;47.03;100458.75;4934388;28;98630;-73
2024/04/07 05:16:06;;;;;;;;;;;;;;;17.14;46.53;100460.88;4935432;27;98113;-73
2024/04/07 05:18:33;;;;;;;;;;;;;;;17.17;46.85;100451.25;4941468;27;98090;-73
2024/04/07 05:21:07;;;;;;;;;;;;;;;17.20;46.79;100447.09;4935490;27;97923;-73
2024/04/07 05:23:33;;;;;;;;;;;;;;;17.24;46.88;100445.38;4939096;27;98206;-70
2024/04/07 05:26:11;;;;;;;;;;;;;;;17.28;46.73;100444.41;4938752;28;98489;-73
2024/04/07 05:28:38;;;;;;;;;;;;;;;17.34;46.83;100439.66;4918774;28;98233;-70
2024/04/07 05:31:04;;;;;;;;;;;;;;;17.40;46.73;100438.38;4919505;27;97996;-69
2024/04/07 05:33:34;;;;;;;;;;;;;;;17.45;46.75;100443.72;4939008;28;98637;-70
2024/04/07 05:36:00;;;;;;;;;;;;;;;17.52;46.58;100438.59;4932693;28;98631;-70
2024/04/07 05:38:26;;;;;;;;;;;;;;;17.61;46.63;100434.00;4935810;27;98577;-73
2024/04/07 05:40:56;;;;;;;;;;;;;;;17.71;46.47;100435.63;4922524;28;99861;-70
2024/04/07 05:43:24;;;;;;;;;;;;;;;17.81;46.58;100440.03;4952133;27;99358;-70
2024/04/07 05:45:51;;;;;;;;;;;;;;;17.91;46.55;100437.00;4926382;27;98432;-73
2024/04/07 05:48:20;;;;;;;;;;;;;;;18.00;46.53;100435.13;4958896;27;98797;-73
2024/04/07 05:50:47;;;;;;;;;;;;;;;18.12;46.26;100429.84;4954613;28;99042;-73
2024/04/07 05:53:14;;;;;;;;;;;;;;;18.26;46.24;100431.63;4939650;27;98258;-70
2024/04/07 05:55:40;;;;;;;;;;;;;;;18.36;46.07;100426.66;4918013;28;98239;-70
2024/04/07 05:58:06;;;;;;;;;;;;;;;18.48;46.02;100434.22;4938713;27;98404;-70
2024/04/07 06:00:36;;;;;;;;;;;;;;;18.61;46.18;100443.34;4934350;27;98403;-70
2024/04/07 06:03:02;;;;;;;;;;;;;;;18.71;46.08;100440.34;4936942;27;98139;-70
2024/04/07 06:05:29;;;;;;;;;;;;;;;18.82;46.11;100433.44;4956580;27;98396;-73
2024/04/07 06:07:55;;;;;;;;;;;;;;;18.92;45.88;100445.94;4940502;28;98289;-73
2024/04/07 06:10:22;;;;;;;;;;;;;;;19.04;46.03;100446.06;4941692;27;98470;-73
2024/04/07 06:12:49;;;;;;;;;;;;;;;19.13;45.97;100435.91;4925253;28;98152;-70
2024/04/07 06:15:15;;;;;;;;;;;;;;;19.24;45.91;100435.56;4938742;28;98251;-70
2024/04/07 06:17:43;;;;;;;;;;;;;;;19.31;46.04;100438.63;4937947;27;99928;-73
2024/04/07 06:20:10;;;;;;;;;;;;;;;19.36;46.10;100444.69;4933349;27;98154;-73
2024/04/07 06:22:37;;;;;;;;;;;;;;;19.44;45.93;100440.31;4934025;27;99358;-73
2024/04/07 06:25:04;;;;;;;;;;;;;;;19.51;45.99;100450.75;4941319;28;98504;-73
2024/04/07 06:27:31;;;;;;;;;;;;;;;19.61;45.88;100466.81;4938447;27;98750;-70
2024/04/07 06:30:02;;;;;;;;;;;;;;;19.66;45.85;100452.97;4922237;27;98105;-73
2024/04/07 06:32:29;;;;;;;;;;;;;;;19.74;45.92;100459.53;4936939;27;98033;-70
2024/04/07 06:34:57;;;;;;;;;;;;;;;19.85;45.89;100467.03;4935043;27;98222;-73
2024/04/07 06:37:23;;;;;;;;;;;;;;;20.02;45.77;100457.94;4938111;28;98372;-73
2024/04/07 06:39:49;;;;;;;;;;;;;;;20.37;45.45;100462.41;4914750;27;98512;-73
2024/04/07 06:42:27;;;;;;;;;;;;;;;20.83;45.06;100462.19;4938750;28;98378;-70
2024/04/07 06:44:54;;;;;;;;;;;;;;;21.13;44.95;100459.31;4937420;27;98796;-71
2024/04/07 06:47:25;;;;;;;;;;;;;;;21.39;44.78;100458.28;4918312;27;101172;-70
2024/04/07 06:49:53;;;;;;;;;;;;;;;21.60;44.76;100463.66;4915475;27;101444;-70
2024/04/07 06:52:20;;;;;;;;;;;;;;;21.76;44.75;100461.84;4939239;27;98467;-73
2024/04/07 06:54:47;;;;;;;;;;;;;;;21.86;44.77;100464.16;4940806;27;98287;-70
2024/04/07 06:57:14;;;;;;;;;;;;;;;22.02;44.88;100469.75;4950705;27;99016;-71
2024/04/07 06:59:41;;;;;;;;;;;;;;;22.17;44.85;100471.81;4937950;27;99140;-70
2024/04/07 07:02:07;;;;;;;;;;;;;;;22.41;44.63;100475.66;4935240;28;100047;-69
2024/04/07 07:04:33;;;;;;;;;;;;;;;22.67;44.78;100484.25;4927769;27;98349;-73
2024/04/07 07:07:00;;;;;;;;;;;;;;;22.91;44.57;100493.59;4928718;28;98269;-73
2024/04/07 07:09:28;;;;;;;;;;;;;;;23.17;44.23;100504.16;4921411;27;102326;-70
2024/04/07 07:11:55;;;;;;;;;;;;;;;23.39;44.47;100506.31;4934248;27;98525;-73
2024/04/07 07:14:22;;;;;;;;;;;;;;;23.67;44.19;100525.53;4920474;27;98161;-73
2024/04/07 07:16:49;;;;;;;;;;;;;;;23.90;44.04;100547.75;4936378;27;98407;-73
2024/04/07 07:19:16;;;;;;;;;;;;;;;24.13;43.97;100560.84;4936608;27;99163;-73
2024/04/07 07:21:43;;;;;;;;;;;;;;;24.29;44.07;100558.91;4938590;27;98952;-70
2024/04/07 07:24:09;;;;;;;;;;;;;;;24.47;44.23;100565.63;4941019;27;98198;-70
2024/04/07 07:26:36;;;;;;;;;;;;;;;24.62;44.07;100576.97;4968343;27;99339;-73
2024/04/07 07:29:03;;;;;;;;;;;;;;;24.73;44.04;100584.34;4957383;27;98325;-73
2024/04/07 07:31:30;;;;;;;;;;;;;;;24.88;44.05;100592.91;4956262;27;98109;-73
2024/04/07 07:33:57;;;;;;;;;;;;;;;25.11;43.95;100607.63;4937045;27;98454;-73
2024/04/07 07:36:25;;;;;;;;;;;;;;;25.35;44.01;100614.81;4943429;27;98651;-73
2024/04/07 07:38:52;;;;;;;;;;;;;;;25.38;43.81;100567.16;4940294;27;98345;-71
2024/04/07 07:41:19;;;;;;;;;;;;;;;25.43;44.09;100577.91;4952593;27;99014;-70
2024/04/07 07:43:46;;;;;;;;;;;;;;;25.52;44.16;100597.00;4940016;27;98432;-73
2024/04/07 07:46:13;;;;;;;;;;;;;;;25.66;44.06;100602.78;4940453;27;98677;-70
2024/04/07 07:48:41;;;;;;;;;;;;;;;25.91;43.96;100603.25;4939480;27;98032;-73
2024/04/07 07:51:11;;;;;;;;;;;;;;;26.05;43.94;100604.66;4951778;27;98098;-70
2024/04/07 07:53:39;;;;;;;;;;;;;;;26.21;43.83;100616.34;4953379;27;98428;-73
2024/04/07 07:56:09;;;;;;;;;;;;;;;26.36;44.11;100611.88;4935184;27;98208;-73
2024/04/07 07:58:36;;;;;;;;;;;;;;;26.56;43.76;100615.34;4937325;27;98421;-71
2024/04/07 08:01:03;;;;;;;;;;;;;;;26.75;43.85;100618.00;4939794;27;98316;-69
2024/04/07 08:03:29;;;;;;;;;;;;;;;26.98;43.61;100622.66;4972218;27;98103;-73
2024/04/07 08:05:56;;;;;;;;;;;;;;;27.27;43.71;100615.53;4937944;27;98262;-73
2024/04/07 08:08:23;;;;;;;;;;;;;;;27.49;43.65;100617.41;4920899;27;98863;-73
2024/04/07 08:10:49;;;;;;;;;;;;;;;27.72;43.38;100628.31;4936098;27;98054;-71
2024/04/07 08:13:16;;;;;;;;;;;;;;;27.92;43.53;100623.41;4953052;27;98715;-70
2024/04/07 08:15:45;;;;;;;;;;;;;;;28.12;43.54;100629.50;4931317;27;98254;-70
2024/04/07 08:18:12;;;;;;;;;;;;;;;28.14;43.36;100621.63;4937422;27;98358;-73
2024/04/07 08:20:40;;;;;;;;;;;;;;;28.31;43.38;100629.28;4935960;28;98353;-73
2024/04/07 08:23:06;;;;;;;;;;;;;;;28.43;43.61;100624.66;4922620;27;98479;-71
2024/04/07 08:25:33;;;;;;;;;;;;;;;28.93;42.84;100630.50;4935542;27;98350;-71
2024/04/07 08:28:00;;;;;;;;;;;;;;;29.57;42.63;100644.69;4971978;27;98024;-73
2024/04/07 08:30:26;;;;;;;;;;;;;;;29.88;42.32;100643.16;4937419;27;98436;-73
2024/04/07 08:32:54;;;;;;;;;;;;;;;30.26;42.41;100644.41;4938423;27;98573;-73
2024/04/07 08:35:20;;;;;;;;;;;;;;;30.66;42.38;100650.72;4940011;27;98776;-71
2024/04/07 08:37:48;;;;;;;;;;;;;;;31.22;42.03;100657.34;4940151;28;98450;-71
2024/04/07 08:40:14;;;;;;;;;;;;;;;31.57;42.14;100646.50;4925763;27;98351;-71
2024/04/07 08:42:41;;;;;;;;;;;;;;;32.42;41.64;100648.72;4935647;28;98098;-74
2024/04/07 08:45:09;;;;;;;;;;;;;;;32.99;41.01;100650.13;4940297;27;99927;-74
2024/04/07 08:47:38;;;;;;;;;;;;;;;33.52;40.86;100654.25;4920635;27;98081;-71
2024/04/07 08:50:07;;;;;;;;;;;;;;;34.10;41.00;100654.22;4937674;27;98324;-74
2024/04/07 08:52:33;;;;;;;;;;;;;;;34.85;40.47;100653.72;4922096;27;98686;-72
2024/04/07 08:54:59;;;;;;;;;;;;;;;35.28;40.34;100654.88;4957273;27;98471;-71
2024/04/07 08:57:26;;;;;;;;;;;;;;;35.98;39.97;100648.16;4938838;27;98303;-74
2024/04/07 08:59:53;;;;;;;;;;;;;;;36.42;40.16;100643.81;4935862;27;98978;-73
2024/04/07 09:02:19;;;;;;;;;;;;;;;36.99;40.16;100641.53;4939134;27;98583;-72
2024/04/07 09:04:46;;;;;;;;;;;;;;;37.55;39.31;100644.69;4952070;27;98637;-71
2024/04/07 09:07:14;;;;;;;;;;;;;;;37.90;39.67;100632.78;4935907;28;101507;-73
2024/04/07 09:09:40;;;;;;;;;;;;;;;38.50;39.60;100636.34;4937827;27;99594;-69
2024/04/07 09:12:10;;;;;;;;;;;;;;;39.07;39.07;100636.34;4925945;27;98099;-72
2024/04/07 09:14:39;;;;;;;;;;;;;;;39.31;39.17;100641.53;4942982;28;103111;-69
2024/04/07 09:17:08;;;;;;;;;;;;;;;39.31;39.10;100638.69;4934574;27;98612;-73
2024/04/07 09:19:40;;;;;;;;;;;;;;;39.46;39.13;100648.13;4937054;28;98534;-72
2024/04/07 09:22:06;;;;;;;;;;;;;;;39.58;39.36;100644.47;4914024;28;98573;-69
2024/04/07 09:24:34;;;;;;;;;;;;;;;39.32;39.66;100643.09;4951441;28;99146;-69
2024/04/07 09:27:12;;;;;;;;;;;;;;;39.24;39.92;100642.56;4942952;27;99329;-69
2024/04/07 09:29:41;;;;;;;;;;;;;;;39.04;40.11;100634.44;4941043;27;98484;-72
2024/04/07 09:32:07;;;;;;;;;;;;;;;38.47;40.82;100622.41;4938053;27;98636;-69
2024/04/07 09:34:37;;;;;;;;;;;;;;;38.76;40.48;100625.78;4937846;27;98000;-72
2024/04/07 09:37:04;;;;;;;;;;;;;;;39.28;39.73;100617.84;4935911;27;100447;-72
2024/04/07 09:39:31;;;;;;;;;;;;;;;39.20;39.94;100614.50;4940259;27;98482;-69
2024/04/07 09:42:00;;;;;;;;;;;;;;;38.72;40.48;100616.69;4931933;28;99155;-72
2024/04/07 09:44:32;;;;;;;;;;;;;;;38.37;40.36;100613.13;4934041;27;98398;-72
2024/04/07 09:47:03;;;;;;;;;;;;;;;37.65;41.55;100606.25;4917694;27;98310;-69
2024/04/07 09:49:34;;;;;;;;;;;;;;;37.37;41.16;100613.50;4940491;27;98925;-69
2024/04/07 09:52:01;;;;;;;;;;;;;;;37.49;41.00;100614.75;4940931;27;98264;-69
2024/04/07 09:54:44;;;;;;;;;;;;;;;37.91;40.80;100611.84;4934380;27;98656;-69
2024/04/07 09:57:16;;;;;;;;;;;;;;;38.53;40.11;100623.41;4938309;27;99380;-69
2024/04/07 09:59:43;;;;;;;;;;;;;;;39.01;39.68;100621.28;4952283;27;99771;-69
2024/04/07 10:02:14;;;;;;;;;;;;;;;38.95;39.54;100625.94;4935194;27;99296;-72
2024/04/07 10:04:41;;;;;;;;;;;;;;;39.58;39.35;100623.91;4917561;27;102903;-69
2024/04/07 10:07:12;;;;;;;;;;;;;;;40.13;38.94;100627.75;4933412;27;98458;-72
2024/04/07 10:09:39;;;;;;;;;;;;;;;40.28;38.90;100615.84;4966997;27;98093;-69
2024/04/07 10:12:05;;;;;;;;;;;;;;;40.65;38.49;100616.66;4904895;27;100219;-72
2024/04/07 10:14:39;;;;;;;;;;;;;;;41.01;38.44;100615.84;4952867;27;98453;-71
2024/04/07 10:17:09;;;;;;;;;;;;;;;41.56;38.25;100624.13;4938305;27;99976;-69
2024/04/07 10:19:44;;;;;;;;;;;;;;;41.55;38.19;100636.72;4926226;28;97952;-69
2024/04/07 10:22:12;;;;;;;;;;;;;;;41.10;39.02;100627.09;4903768;28;98145;-69
2024/04/07 10:24:41;;;;;;;;;;;;;;;41.28;39.00;100645.28;4945263;28;100537;-69
2024/04/07 10:27:10;;;;;;;;;;;;;;;41.67;38.31;100647.03;4933171;28;99754;-69
2024/04/07 10:29:38;;;;;;;;;;;;;;;41.83;38.41;100634.56;4917244;28;100351;-69
2024/04/07 10:32:15;;;;;;;;;;;;;;;41.63;38.71;100640.75;4930009;28;98793;-69
2024/04/07 10:34:59;;;;;;;;;;;;;;;41.62;38.91;100641.22;4912243;28;100109;-69
2024/04/07 10:37:28;;;;;;;;;;;;;;;41.57;38.52;100639.06;4928427;28;99220;-69
2024/04/07 10:39:56;;;;;;;;;;;;;;;41.02;39.19;100628.69;4917994;28;101518;-69
2024/04/07 10:42:22;;;;;;;;;;;;;;;41.03;39.09;100635.91;4902750;28;98564;-71
2024/04/07 10:44:49;;;;;;;;;;;;;;;40.79;38.90;100635.75;4917034;28;98892;-71
2024/04/07 10:47:17;;;;;;;;;;;;;;;40.55;39.41;100634.84;4917903;28;98948;-69
2024/04/07 10:49:44;;;;;;;;;;;;;;;40.30;39.64;100625.41;4922511;28;98403;-68
2024/04/07 10:52:14;;;;;;;;;;;;;;;40.53;39.16;100617.56;4920232;28;100184;-71
2024/04/07 10:54:41;;;;;;;;;;;;;;;40.36;39.33;100622.72;4938470;28;98829;-69
2024/04/07 10:57:14;;;;;;;;;;;;;;;40.39;39.29;100616.94;4920734;28;98700;-69
2024/04/07 10:59:42;;;;;;;;;;;;;;;40.11;39.70;100621.78;4921603;28;98347;-69
2024/04/07 11:02:09;;;;;;;;;;;;;;;39.61;40.15;100637.88;4921343;28;98421;-71
2024/04/07 11:04:36;;;;;;;;;;;;;;;39.06;40.29;100636.78;4906503;28;99716;-71
2024/04/07 11:07:03;;;;;;;;;;;;;;;38.87;40.29;100638.69;4911178;28;98728;-69
2024/04/07 11:09:30;;;;;;;;;;;;;;;38.34;40.70;100636.53;4938476;28;99169;-68
2024/04/07 11:11:57;;;;;;;;;;;;;;;37.86;41.21;100635.69;4936940;28;98428;-68
2024/04/07 11:14:27;;;;;;;;;;;;;;;37.46;41.01;100630.53;4920293;28;98206;-71
2024/04/07 11:16:54;;;;;;;;;;;;;;;37.17;41.59;100632.56;4898549;28;98389;-71
2024/04/07 11:19:27;;;;;;;;;;;;;;;36.87;41.33;100640.25;4938174;28;99120;-71
2024/04/07 11:21:54;;;;;;;;;;;;;;;36.49;41.59;100637.28;4933140;28;98131;-68
2024/04/07 11:24:21;;;;;;;;;;;;;;;36.13;41.58;100635.38;4933633;28;98596;-68
2024/04/07 11:26:50;;;;;;;;;;;;;;;35.75;41.81;100643.47;4936279;28;98225;-71
2024/04/07 11:29:17;;;;;;;;;;;;;;;35.38;41.94;100656.69;4933232;28;99248;-71
2024/04/07 11:31:52;;;;;;;;;;;;;;;35.20;41.74;100661.88;4936946;28;99224;-68
2024/04/07 11:34:22;;;;;;;;;;;;;;;35.12;41.70;100670.41;4953555;28;98624;-71
2024/04/07 11:36:49;;;;;;;;;;;;;;;35.10;41.46;100667.25;4936345;28;98248;-68
2024/04/07 11:39:16;;;;;;;;;;;;;;;35.17;41.35;100669.91;4931951;28;98050;-71
2024/04/07 11:41:44;;;;;;;;;;;;;;;35.26;41.34;100672.13;4922777;28;98301;-68
2024/04/07 11:44:12;;;;;;;;;;;;;;;35.07;41.38;100665.31;4915701;28;98276;-71
2024/04/07 11:46:38;;;;;;;;;;;;;;;35.01;41.43;100681.03;4933285;28;98646;-68
2024/04/07 11:49:05;;;;;;;;;;;;;;;34.87;41.38;100682.06;4931094;28;99535;-71
2024/04/07 11:51:33;;;;;;;;;;;;;;;34.67;41.50;100667.28;4935095;28;98649;-68
2024/04/07 11:54:01;;;;;;;;;;;;;;;34.45;41.38;100664.81;4918609;28;98157;-68
2024/04/07 11:56:28;;;;;;;;;;;;;;;34.35;41.78;100671.41;4914091;28;98184;-71
2024/04/07 11:58:54;;;;;;;;;;;;;;;34.33;41.46;100657.03;4915515;28;98473;-71
2024/04/07 12:01:21;;;;;;;;;;;;;;;34.20;41.67;100653.28;4937492;28;100498;-71
2024/04/07 12:03:47;;;;;;;;;;;;;;;34.25;41.24;100666.75;4934037;28;98587;-70
2024/04/07 12:06:15;;;;;;;;;;;;;;;34.42;41.08;100668.47;4951738;27;98619;-71
2024/04/07 12:08:42;;;;;;;;;;;;;;;34.42;41.15;100665.66;4899577;28;100276;-68
2024/04/07 12:11:08;;;;;;;;;;;;;;;34.21;41.43;100666.03;4915838;28;97950;-68
2024/04/07 12:13:35;;;;;;;;;;;;;;;34.08;41.28;100667.84;4934526;28;98524;-68
2024/04/07 12:16:02;;;;;;;;;;;;;;;34.02;41.61;100664.75;4931136;28;99118;-71
2024/04/07 12:18:28;;;;;;;;;;;;;;;33.94;41.56;100677.22;4951596;28;98891;-68
2024/04/07 12:20:55;;;;;;;;;;;;;;;34.04;41.10;100684.69;4962788;27;98225;-68
2024/04/07 12:23:21;;;;;;;;;;;;;;;34.34;40.98;100683.78;4919199;28;98295;-69
2024/04/07 12:25:47;;;;;;;;;;;;;;;34.60;40.51;100690.56;4935148;28;105061;-71
2024/04/07 12:28:15;;;;;;;;;;;;;;;34.48;40.92;100682.75;4933761;28;104170;-71
2024/04/07 12:30:41;;;;;;;;;;;;;;;34.38;41.25;100667.72;4938519;28;98431;-68
2024/04/07 12:33:07;;;;;;;;;;;;;;;34.34;41.09;100678.19;4913240;28;98900;-71
2024/04/07 12:35:34;;;;;;;;;;;;;;;34.28;41.12;100677.09;4946481;28;100020;-70
2024/04/07 12:38:01;;;;;;;;;;;;;;;34.18;40.95;100669.69;4929624;28;98768;-68
2024/04/07 12:40:27;;;;;;;;;;;;;;;34.34;41.21;100672.59;4935272;28;98363;-71